EYKA/KUN METAR and TAF weather

Enter ICAO airport designator
Station Type Date Time Source
EYKA METAR 2022/06/27 08:50 UTC NOAA

EYKA 270850Z 17005KT 130V200 CAVOK 28/17 Q1022


Station Type Date Time Source
EYKA Decoded METAR 2022/06/27 08:50 UTC NOAA

Kaunas, Lithuania (EYKA) 54-54N 023-55-12E
Jun 27, 2022 - 04:50 AM EDT / 2022.06.27 0850 UTC
Wind: from the S (170 degrees) at 6 MPH (5 KT) (direction variable):0
Visibility: greater than 7 mile(s):0
Temperature: 82 F (28 C)
Dew Point: 62 F (17 C)
Relative Humidity: 51%
Pressure (altimeter): 30.18 in. Hg (1022 hPa)
ob: EYKA 270850Z 17005KT 130V200 CAVOK 28/17 Q1022
cycle: 9

Station Type Date Time Source
EYKA TAF 2022/06/27 06:03 UTC NOAA

TAF TAF EYKA 270500Z 2706/2806 VRB04KT 9000 NSC
TEMPO 2708/2716 15014KT SCT040

Example: see airport list